LIPR Airport Information

Runway Information
Runway 13 Length 9828 ft width 148 ft
Elevation 21 ft Threshold 1030 ft Heading 128
Runway 31 Length 9828 ft Width 148 ft
Elevation 39 ft Threshold 1006 ft Heading 308
Airport Frequencies
Type APP Name ROMAGNA AP Frequency 36.23 MHZ
Type APP Name ROMAGNA AP Frequency 118.15 MHZ
Type GCCD Name GND/CLNC D Frequency 121.6 MHZ
Type TWR Name TWR Frequency 119.1 MHZ
Airport Navaids
Type VORTAC Name Rimini Frequency 116200 KHZ
Type NDB Name Rimini Frequency 335 KHZ
Airport Weather Information & NOTAM
ADDS - METARS form results

(0408 UTC 27 February 2021)
Data provider http://aviationweather.gov/metar/data/
 
METAR text: LIPR 270350Z AUTO 19002KT 7000 NCD 03/02 Q1022
Conditions at: LIPR (RIMINI (CIV/IT-A, IT) observed 0350 UTC 27 February 2021
Temperature: 3.0°C (37°F)
Dewpoint: 2.0°C (36°F) [RH = 93%]
Pressure (altimeter): 30.18 inches Hg (1022.0 mb)
Winds: from the S (190 degrees) at 2 MPH (2 knots; 1.0 m/s)
Visibility: 4 miles ( 7 km)
Ceiling: at least 12,000 feet AGL
Clouds: sky clear below 12,000 feet AGL
Weather: no significant weather observed at this time

METAR text: LIPR 270320Z AUTO VRB01KT 5000 BR NCD 04/03 Q1022
Conditions at: LIPR (RIMINI (CIV/IT-A, IT) observed 0320 UTC 27 February 2021
Temperature: 4.0°C (39°F)
Dewpoint: 3.0°C (37°F) [RH = 93%]
Pressure (altimeter): 30.18 inches Hg (1022.0 mb)
Winds: variable direction winds at 1 MPH (1 knots; 0.5 m/s)
Visibility: 3 miles ( 5 km)
Ceiling: at least 12,000 feet AGL
Clouds: sky clear below 12,000 feet AGL
Weather: BR  (mist)

Forecast for: LIPR (RIMINI (CIV/IT-A, IT)
Text: TAF LIPR 270200Z 2703/2712 VRB05KT 7000 NSC
Forecast period: 0300 to 1200 UTC 27 February 2021
Forecast type: FROM: standard forecast or significant change
Winds: variable direction winds at 6 MPH (5 knots; 2.6 m/s)
Visibility: 4 miles (7 km)
Ceiling: unknown
Clouds: missing
Weather: no significant weather forecast for this period